createdAt,value
2022-12-31T00:01:29.315Z,99328.69
2022-12-31T00:03:32.423Z,99323.41
2022-12-31T00:05:37.280Z,99320.84
2022-12-31T00:09:41.943Z,99324.84
2022-12-31T00:11:44.876Z,99323.19
2022-12-31T00:13:48.556Z,99326.78
2022-12-31T00:15:51.479Z,99311.06
2022-12-31T00:17:55.882Z,99311.94
2022-12-31T00:19:58.792Z,99320.84
2022-12-31T00:22:03.844Z,99311.28
2022-12-31T00:24:07.990Z,99318.31
2022-12-31T00:26:12.583Z,99311.00
2022-12-31T00:28:15.544Z,99315.13
2022-12-31T00:30:18.774Z,99328.41
2022-12-31T00:32:23.096Z,99330.31
2022-12-31T00:34:27.528Z,99342.41
2022-12-31T00:36:32.406Z,99322.34
2022-12-31T00:38:36.306Z,99338.66
2022-12-31T00:40:39.230Z,99330.50
2022-12-31T00:42:42.384Z,99338.03
2022-12-31T00:44:45.639Z,99342.16
2022-12-31T00:46:48.820Z,99347.75
2022-12-31T00:48:51.997Z,99350.13
2022-12-31T00:50:57.905Z,99355.28
2022-12-31T00:53:01.129Z,99355.91
2022-12-31T00:55:04.252Z,99357.28
2022-12-31T00:57:07.224Z,99355.16
2022-12-31T00:59:10.172Z,99349.13
2022-12-31T01:01:16.223Z,99343.28
2022-12-31T01:03:19.289Z,99343.22
2022-12-31T01:05:22.392Z,99338.19
2022-12-31T01:07:26.784Z,99335.22
2022-12-31T01:09:29.972Z,99332.91
2022-12-31T01:11:31.923Z,99329.88
2022-12-31T01:13:35.064Z,99327.34
2022-12-31T01:15:39.290Z,99326.50
2022-12-31T01:17:42.165Z,99314.66
2022-12-31T01:19:45.267Z,99311.03
2022-12-31T01:21:49.295Z,99308.41
2022-12-31T01:23:53.799Z,99293.47
2022-12-31T01:25:56.801Z,99288.91
2022-12-31T01:27:59.959Z,99298.53
2022-12-31T01:30:03.095Z,99299.72
2022-12-31T01:32:06.756Z,99297.41
2022-12-31T01:34:10.320Z,99289.97
2022-12-31T01:36:19.044Z,99280.34
2022-12-31T01:38:26.670Z,99281.81
2022-12-31T01:40:31.741Z,99290.13
2022-12-31T01:42:34.759Z,99270.59
2022-12-31T01:44:53.885Z,99284.59
2022-12-31T01:46:59.076Z,99282.38
2022-12-31T01:49:05.140Z,99282.25
2022-12-31T01:51:10.489Z,99273.16
2022-12-31T01:53:13.645Z,99306.13
2022-12-31T01:55:20.671Z,99279.72
2022-12-31T01:57:25.668Z,99281.41
2022-12-31T01:59:29.843Z,99269.13
2022-12-31T02:01:33.732Z,99266.66
2022-12-31T02:03:37.052Z,99267.41
2022-12-31T02:09:15.114Z,99282.91
2022-12-31T02:11:25.476Z,99283.31
2022-12-31T02:13:31.257Z,99263.16
2022-12-31T02:15:39.990Z,99253.19
2022-12-31T02:17:50.499Z,99262.53
2022-12-31T02:20:25.679Z,99253.81
2022-12-31T02:22:43.045Z,99259.34
2022-12-31T02:25:08.331Z,99275.38
2022-12-31T02:27:14.272Z,99271.53
2022-12-31T02:29:58.947Z,99280.97
2022-12-31T02:32:08.793Z,99281.81
2022-12-31T02:34:15.308Z,99271.50
2022-12-31T02:36:21.328Z,99277.44
2022-12-31T02:38:27.316Z,99304.69
2022-12-31T02:40:30.461Z,99261.75
2022-12-31T02:42:33.433Z,99254.69
2022-12-31T02:44:38.432Z,99256.81
2022-12-31T02:46:44.134Z,99251.25
2022-12-31T02:48:50.720Z,99248.50
2022-12-31T02:50:59.622Z,99256.97
2022-12-31T02:53:12.473Z,99244.09
2022-12-31T02:55:19.448Z,99240.13
2022-12-31T02:57:28.292Z,99254.59
2022-12-31T02:59:52.298Z,99246.03
2022-12-31T03:02:14.955Z,99243.28
2022-12-31T03:04:36.592Z,99241.72
2022-12-31T03:06:39.672Z,99265.84
2022-12-31T03:08:57.655Z,99249.16
2022-12-31T03:11:20.480Z,99268.69
2022-12-31T03:13:22.594Z,99259.06
2022-12-31T03:15:27.484Z,99259.78
2022-12-31T03:17:30.369Z,99255.28
2022-12-31T03:19:52.064Z,99278.13
2022-12-31T03:22:12.385Z,99273.13
2022-12-31T03:24:33.247Z,99272.50
2022-12-31T03:26:36.391Z,99280.94
2022-12-31T03:28:40.506Z,99278.28
2022-12-31T03:30:45.211Z,99284.94
2022-12-31T03:32:49.490Z,99288.25
2022-12-31T03:34:54.170Z,99291.78
2022-12-31T03:36:57.167Z,99290.56
2022-12-31T03:39:00.159Z,99287.19
2022-12-31T03:41:03.332Z,99313.53
2022-12-31T03:43:06.577Z,99294.47
2022-12-31T03:45:12.637Z,99303.72
2022-12-31T03:47:15.853Z,99298.53
2022-12-31T03:49:18.807Z,99299.50
2022-12-31T03:51:23.206Z,99305.69
2022-12-31T03:53:27.394Z,99302.91
2022-12-31T03:55:30.508Z,99290.34
2022-12-31T03:57:33.525Z,99291.09
2022-12-31T03:59:36.434Z,99296.50
2022-12-31T04:01:39.473Z,99283.13
2022-12-31T04:03:42.706Z,99306.84
2022-12-31T04:05:45.529Z,99300.06
2022-12-31T04:07:52.115Z,99305.59
2022-12-31T04:09:55.055Z,99309.50
2022-12-31T04:11:57.959Z,99296.31
2022-12-31T04:14:01.187Z,99298.72
2022-12-31T04:16:04.192Z,99296.81
2022-12-31T04:18:07.973Z,99294.03
2022-12-31T04:20:11.872Z,99283.16
2022-12-31T04:22:14.913Z,99290.34
2022-12-31T04:24:19.119Z,99271.84
2022-12-31T04:26:22.058Z,99272.34
2022-12-31T04:28:25.245Z,99276.78
2022-12-31T04:30:28.172Z,99293.66
2022-12-31T04:32:32.166Z,99272.31
2022-12-31T04:34:37.302Z,99280.63
2022-12-31T04:36:40.406Z,99287.78
2022-12-31T04:38:43.485Z,99287.91
2022-12-31T04:41:01.955Z,99285.94
2022-12-31T04:43:04.851Z,99284.16
2022-12-31T04:45:09.322Z,99280.31
2022-12-31T04:47:12.786Z,99294.03
2022-12-31T04:49:17.229Z,99300.69
2022-12-31T04:51:21.034Z,99314.63
2022-12-31T04:53:25.085Z,99303.75
2022-12-31T04:55:28.183Z,99292.28
2022-12-31T04:57:32.428Z,99300.06
2022-12-31T04:59:35.396Z,99299.59
2022-12-31T05:01:40.034Z,99323.13
2022-12-31T05:03:43.384Z,99314.91
2022-12-31T05:05:46.281Z,99324.59
2022-12-31T05:07:49.514Z,99353.25
2022-12-31T05:09:52.392Z,99309.78
2022-12-31T05:11:55.609Z,99311.47
2022-12-31T05:13:59.995Z,99300.00
2022-12-31T05:16:03.826Z,99298.47
2022-12-31T05:18:07.212Z,99310.53
2022-12-31T05:20:10.728Z,99289.06
2022-12-31T05:22:30.359Z,99305.72
2022-12-31T05:24:33.374Z,99291.94
2022-12-31T05:26:36.638Z,99287.84
2022-12-31T05:28:40.363Z,99261.13
2022-12-31T05:30:45.492Z,99274.78
2022-12-31T05:32:49.480Z,99282.91
2022-12-31T05:34:53.801Z,99270.56
2022-12-31T05:36:56.963Z,99280.34
2022-12-31T05:38:59.855Z,99263.16
2022-12-31T05:41:03.736Z,99291.25
2022-12-31T05:43:06.833Z,99302.84
2022-12-31T05:45:13.443Z,99302.88
2022-12-31T05:47:18.046Z,99271.66
2022-12-31T05:49:20.994Z,99295.50
2022-12-31T05:51:23.889Z,99290.16
2022-12-31T05:53:26.764Z,99285.06
2022-12-31T05:55:29.599Z,99294.03
2022-12-31T05:57:32.495Z,99283.22
2022-12-31T05:59:35.826Z,99292.06
2022-12-31T06:01:38.799Z,99290.47
2022-12-31T06:03:43.956Z,99301.13
2022-12-31T06:05:47.112Z,99285.13
2022-12-31T06:07:49.977Z,99301.38
2022-12-31T06:09:53.074Z,99320.09
2022-12-31T06:11:55.997Z,99300.38
2022-12-31T06:13:59.312Z,99308.38
2022-12-31T06:16:06.411Z,99331.84
2022-12-31T06:18:09.329Z,99327.50
2022-12-31T06:20:13.727Z,99334.75
2022-12-31T06:22:16.735Z,99320.69
2022-12-31T06:24:19.985Z,99315.75
2022-12-31T06:26:23.177Z,99321.69
2022-12-31T06:28:27.320Z,99363.81
2022-12-31T06:30:30.879Z,99336.78
2022-12-31T06:32:35.096Z,99334.72
2022-12-31T06:34:39.164Z,99324.91
2022-12-31T06:36:43.493Z,99321.84
2022-12-31T06:38:46.780Z,99330.84
2022-12-31T06:40:49.735Z,99298.84
2022-12-31T06:42:59.503Z,99334.47
2022-12-31T06:45:03.017Z,99380.00
2022-12-31T06:47:06.648Z,99341.09
2022-12-31T06:49:09.786Z,99390.06
2022-12-31T06:51:17.219Z,99353.59
2022-12-31T06:53:21.926Z,99348.28
2022-12-31T06:55:25.641Z,99320.16
2022-12-31T06:57:29.108Z,99363.47
2022-12-31T06:59:32.643Z,99364.94
2022-12-31T07:01:45.338Z,99380.00
2022-12-31T07:03:56.116Z,99350.69
2022-12-31T07:06:05.371Z,99360.47
2022-12-31T07:08:19.260Z,99372.84
2022-12-31T07:10:31.061Z,99371.25
2022-12-31T07:12:43.769Z,99352.59
2022-12-31T07:14:48.951Z,99371.34
2022-12-31T07:16:58.903Z,99364.81
2022-12-31T07:19:12.114Z,99361.28
2022-12-31T07:21:17.151Z,99379.00
2022-12-31T07:23:20.652Z,99365.44
2022-12-31T07:25:25.907Z,99344.34
2022-12-31T07:27:43.113Z,99372.94
2022-12-31T07:29:59.100Z,99363.34
2022-12-31T07:32:10.488Z,99390.31
2022-12-31T07:34:21.511Z,99387.78
2022-12-31T07:36:35.724Z,99385.13
2022-12-31T07:38:42.188Z,99378.22
2022-12-31T07:40:57.709Z,99383.31
2022-12-31T07:43:08.827Z,99373.72
2022-12-31T07:45:18.062Z,99389.13
2022-12-31T07:47:24.359Z,99403.78
2022-12-31T07:49:29.183Z,99385.94
2022-12-31T07:51:35.608Z,99395.19
2022-12-31T07:53:38.732Z,99391.56
2022-12-31T07:55:41.589Z,99417.72
2022-12-31T07:57:51.295Z,99417.47
2022-12-31T08:00:05.327Z,99412.88
2022-12-31T08:02:22.436Z,99392.72
2022-12-31T08:04:29.825Z,99416.72
2022-12-31T08:06:39.860Z,99388.16
2022-12-31T08:08:50.460Z,99414.81
2022-12-31T08:11:01.371Z,99428.63
2022-12-31T08:13:11.631Z,99398.56
2022-12-31T08:15:17.947Z,99411.53
2022-12-31T08:17:22.044Z,99419.19
2022-12-31T08:19:26.883Z,99421.13
2022-12-31T08:21:39.565Z,99396.88
2022-12-31T08:23:48.736Z,99435.78
2022-12-31T08:26:04.177Z,99424.28
2022-12-31T08:28:16.629Z,99400.28
2022-12-31T08:30:22.007Z,99465.00
2022-12-31T08:32:27.882Z,99439.28
2022-12-31T08:34:38.070Z,99430.94
2022-12-31T08:36:47.533Z,99437.09
2022-12-31T08:38:56.078Z,99436.59
2022-12-31T08:41:05.284Z,99428.72
2022-12-31T08:43:22.606Z,99439.00
2022-12-31T08:45:29.970Z,99417.78
2022-12-31T08:47:40.639Z,99442.25
2022-12-31T08:49:44.120Z,99454.47
2022-12-31T08:51:56.387Z,99453.25
2022-12-31T08:54:00.980Z,99448.19
2022-12-31T08:56:09.034Z,99444.53
2022-12-31T08:58:23.371Z,99451.44
2022-12-31T09:00:28.012Z,99470.47
2022-12-31T09:03:10.026Z,99463.91
2022-12-31T09:05:20.396Z,99364.06
2022-12-31T09:07:30.036Z,99446.38
2022-12-31T09:09:39.864Z,99431.81
2022-12-31T09:11:51.035Z,99465.78
2022-12-31T09:14:10.246Z,99461.19
2022-12-31T09:16:16.948Z,99484.59
2022-12-31T09:18:20.913Z,99457.06
2022-12-31T09:20:36.306Z,99421.91
2022-12-31T09:22:45.451Z,99449.44
2022-12-31T09:24:49.712Z,99450.91
2022-12-31T09:27:00.951Z,99468.84
2022-12-31T09:29:13.988Z,99480.38
2022-12-31T09:31:20.550Z,99456.69
2022-12-31T09:33:35.361Z,99453.16
2022-12-31T09:35:40.248Z,99509.59
2022-12-31T09:37:49.269Z,99499.75
2022-12-31T09:39:52.238Z,99529.59
2022-12-31T09:42:12.271Z,99513.81
2022-12-31T09:45:09.561Z,99552.63
2022-12-31T09:47:51.490Z,99556.50
2022-12-31T09:50:36.150Z,99550.16
2022-12-31T09:52:47.645Z,99508.00
2022-12-31T09:54:54.120Z,99554.09
2022-12-31T09:57:22.192Z,99563.78
2022-12-31T09:59:31.372Z,99540.00
2022-12-31T10:01:46.096Z,99570.09
2022-12-31T10:04:10.992Z,99559.91
2022-12-31T10:06:22.025Z,99553.03
2022-12-31T10:08:38.244Z,99568.91
2022-12-31T10:10:47.888Z,99582.38
2022-12-31T10:13:27.226Z,99577.63
2022-12-31T10:16:01.820Z,99543.03
2022-12-31T10:18:13.589Z,99573.22
2022-12-31T10:20:43.315Z,99572.63
2022-12-31T10:23:09.171Z,99564.50
2022-12-31T10:25:41.543Z,99559.41
2022-12-31T10:27:51.061Z,99579.41
2022-12-31T10:30:00.185Z,99599.91
2022-12-31T10:32:16.970Z,99595.06
2022-12-31T10:34:27.112Z,99579.16
2022-12-31T10:36:46.130Z,99598.22
2022-12-31T10:39:00.725Z,99571.50
2022-12-31T10:41:39.158Z,99585.31
2022-12-31T10:44:10.054Z,99606.06
2022-12-31T10:46:26.522Z,99548.66
2022-12-31T10:49:17.818Z,99595.09
2022-12-31T10:52:00.307Z,99613.66
2022-12-31T10:54:19.229Z,99570.09
2022-12-31T10:57:23.543Z,99595.09
2022-12-31T11:00:12.158Z,99592.53
2022-12-31T11:02:32.303Z,99605.19
2022-12-31T11:05:05.255Z,99612.09
2022-12-31T11:07:47.285Z,99599.31
2022-12-31T11:10:25.667Z,99576.06
2022-12-31T11:12:43.508Z,99581.00
2022-12-31T11:15:02.438Z,99574.16
2022-12-31T11:17:17.288Z,99602.00
2022-12-31T11:19:25.723Z,99578.06
2022-12-31T11:21:56.082Z,99567.91
2022-12-31T11:24:04.521Z,99564.03
2022-12-31T11:26:16.227Z,99570.78
2022-12-31T11:28:31.048Z,99568.78
2022-12-31T11:30:38.295Z,99567.47
2022-12-31T11:32:50.882Z,99585.28
2022-12-31T11:35:26.103Z,99555.06
2022-12-31T11:37:34.301Z,99592.88
2022-12-31T11:39:48.419Z,99586.00
2022-12-31T11:41:53.764Z,99597.31
2022-12-31T11:44:06.676Z,99588.72
2022-12-31T11:46:42.294Z,99570.16
2022-12-31T11:48:53.709Z,99583.50
2022-12-31T11:51:06.299Z,99568.25
2022-12-31T11:53:35.920Z,99606.75
2022-12-31T11:55:54.436Z,99601.88
2022-12-31T11:58:01.150Z,99553.22
2022-12-31T12:00:14.607Z,99597.16
2022-12-31T12:02:26.058Z,99645.09
2022-12-31T12:04:29.561Z,99594.75
2022-12-31T12:06:35.552Z,99589.88
2022-12-31T12:08:40.379Z,99587.19
2022-12-31T12:10:45.992Z,99591.44
2022-12-31T12:12:49.030Z,99596.19
2022-12-31T12:14:55.170Z,99599.59
2022-12-31T12:17:04.767Z,99593.97
2022-12-31T12:19:09.415Z,99567.81
2022-12-31T12:21:13.610Z,99616.56
2022-12-31T12:23:18.686Z,99599.59
2022-12-31T12:25:23.523Z,99608.56
2022-12-31T12:27:29.701Z,99622.91
2022-12-31T12:29:35.472Z,99625.56
2022-12-31T12:31:39.318Z,99625.81
2022-12-31T12:33:45.183Z,99618.81
2022-12-31T12:35:48.559Z,99633.63
2022-12-31T12:38:00.052Z,99648.97
2022-12-31T12:40:06.804Z,99624.81
2022-12-31T12:42:14.663Z,99639.63
2022-12-31T12:44:17.754Z,99605.06
2022-12-31T12:46:31.757Z,99620.09
2022-12-31T12:48:39.811Z,99617.78
2022-12-31T12:50:46.399Z,99613.22
2022-12-31T12:53:01.774Z,99607.53
2022-12-31T12:55:11.708Z,99617.91
2022-12-31T12:57:17.937Z,99620.44
2022-12-31T12:59:44.750Z,99615.38
2022-12-31T13:01:51.500Z,99642.47
2022-12-31T13:04:33.622Z,99618.97
2022-12-31T13:06:38.127Z,99638.94
2022-12-31T13:08:57.728Z,99639.69
2022-12-31T13:11:18.217Z,99628.03
2022-12-31T13:13:26.102Z,99648.28
2022-12-31T13:15:33.423Z,99644.66
2022-12-31T13:17:54.989Z,99636.28
2022-12-31T13:20:03.171Z,99640.91
2022-12-31T13:22:12.724Z,99650.22
2022-12-31T13:24:26.328Z,99636.91
2022-12-31T13:26:33.879Z,99641.41
2022-12-31T13:28:40.442Z,99647.94
2022-12-31T13:30:46.885Z,99659.31
2022-12-31T13:32:54.593Z,99666.19
2022-12-31T13:35:14.287Z,99662.44
2022-12-31T13:37:27.168Z,99645.97
2022-12-31T13:39:32.819Z,99653.00
2022-12-31T13:41:39.853Z,99641.44
2022-12-31T13:43:50.863Z,99642.53
2022-12-31T13:46:04.162Z,99644.72
2022-12-31T13:48:09.489Z,99662.16
2022-12-31T13:50:17.532Z,99659.25
2022-12-31T13:52:28.920Z,99660.50
2022-12-31T13:54:39.531Z,99656.50
2022-12-31T13:56:44.077Z,99660.25
2022-12-31T13:58:53.156Z,99650.59
2022-12-31T14:01:01.830Z,99639.44
2022-12-31T14:03:11.523Z,99642.50
2022-12-31T14:05:17.655Z,99644.56
2022-12-31T14:07:29.080Z,99650.75
2022-12-31T14:09:37.799Z,99648.69
2022-12-31T14:11:55.424Z,99638.97
2022-12-31T14:14:09.425Z,99632.44
2022-12-31T14:16:21.634Z,99647.72
2022-12-31T14:18:28.907Z,99632.06
2022-12-31T14:20:42.863Z,99622.16
2022-12-31T14:22:51.337Z,99646.28
2022-12-31T14:24:55.314Z,99642.53
2022-12-31T14:27:00.967Z,99638.03
2022-12-31T14:29:12.109Z,99635.88
2022-12-31T14:31:23.456Z,99648.75
2022-12-31T14:33:40.043Z,99656.50
2022-12-31T14:35:56.217Z,99653.59
2022-12-31T14:38:07.139Z,99645.19
2022-12-31T14:40:19.843Z,99648.50
2022-12-31T14:42:29.248Z,99648.19
2022-12-31T14:44:47.302Z,99638.03
2022-12-31T14:47:01.189Z,99660.56
2022-12-31T14:49:17.194Z,99665.38
2022-12-31T14:51:20.301Z,99650.09
2022-12-31T14:53:28.936Z,99664.16
2022-12-31T14:55:35.875Z,99658.09
2022-12-31T14:58:25.310Z,99675.66
2022-12-31T15:00:24.722Z,99665.09
2022-12-31T15:02:29.523Z,99675.88
2022-12-31T15:04:35.819Z,99669.44
2022-12-31T15:06:53.978Z,99671.38
2022-12-31T15:09:08.622Z,99678.25
2022-12-31T15:11:41.171Z,99678.47
2022-12-31T15:13:59.581Z,99688.69
2022-12-31T15:16:14.511Z,99682.75
2022-12-31T15:18:31.968Z,99679.34
2022-12-31T15:20:46.234Z,99678.47
2022-12-31T15:22:49.964Z,99664.66
2022-12-31T15:24:54.763Z,99677.47
2022-12-31T15:26:59.274Z,99669.59
2022-12-31T15:29:06.601Z,99666.81
2022-12-31T15:31:19.026Z,99672.28
2022-12-31T15:33:29.019Z,99655.28
2022-12-31T15:35:33.402Z,99660.72
2022-12-31T15:37:37.160Z,99661.56
2022-12-31T15:39:42.700Z,99683.94
2022-12-31T15:42:35.664Z,99663.28
2022-12-31T15:44:19.609Z,99700.78
2022-12-31T15:46:25.245Z,99691.06
2022-12-31T15:48:32.591Z,99699.56
2022-12-31T15:50:38.852Z,99688.81
2022-12-31T15:52:44.332Z,99693.50
2022-12-31T15:54:50.346Z,99688.19
2022-12-31T15:56:55.424Z,99684.81
2022-12-31T15:59:00.527Z,99674.53
2022-12-31T16:01:10.007Z,99692.09
2022-12-31T16:03:21.676Z,99694.75
2022-12-31T16:05:26.516Z,99678.56
2022-12-31T16:07:29.820Z,99662.78
2022-12-31T16:09:34.864Z,99668.75
2022-12-31T16:11:41.561Z,99678.09
2022-12-31T16:13:48.606Z,99672.16
2022-12-31T16:15:53.846Z,99683.41
2022-12-31T16:18:04.529Z,99690.44
2022-12-31T16:20:23.502Z,99681.63
2022-12-31T16:22:28.026Z,99691.19
2022-12-31T16:24:35.203Z,99709.06
2022-12-31T16:26:45.836Z,99691.28
2022-12-31T16:28:50.818Z,99659.00
2022-12-31T16:30:59.340Z,99674.47
2022-12-31T16:33:04.344Z,99673.75
2022-12-31T16:35:23.800Z,99662.59
2022-12-31T16:37:27.564Z,99664.63
2022-12-31T16:39:32.737Z,99689.44
2022-12-31T16:41:43.953Z,99663.78
2022-12-31T16:43:48.618Z,99659.00
2022-12-31T16:45:53.207Z,99645.81
2022-12-31T16:47:56.271Z,99655.16
2022-12-31T16:50:04.069Z,99662.09
2022-12-31T16:52:09.802Z,99673.69
2022-12-31T16:54:20.857Z,99687.34
2022-12-31T16:56:30.055Z,99686.72
2022-12-31T16:58:34.964Z,99669.66
2022-12-31T17:00:38.850Z,99665.31
2022-12-31T17:02:44.456Z,99671.69
2022-12-31T17:04:55.327Z,99669.16
2022-12-31T17:07:29.066Z,99662.66
2022-12-31T17:09:34.370Z,99656.47
2022-12-31T17:11:45.195Z,99650.53
2022-12-31T17:13:55.572Z,99661.16
2022-12-31T17:15:59.262Z,99662.78
2022-12-31T17:18:03.925Z,99655.03
2022-12-31T17:20:10.146Z,99660.34
2022-12-31T17:22:24.135Z,99660.34
2022-12-31T17:24:31.468Z,99652.00
2022-12-31T17:26:37.477Z,99651.16
2022-12-31T17:28:43.719Z,99663.38
2022-12-31T17:30:46.844Z,99662.53
2022-12-31T17:32:51.741Z,99661.16
2022-12-31T17:34:57.860Z,99669.03
2022-12-31T17:37:19.306Z,99687.69
2022-12-31T17:39:24.022Z,99649.47
2022-12-31T17:41:27.831Z,99647.75
2022-12-31T17:43:35.183Z,99634.94
2022-12-31T17:45:39.601Z,99619.56
2022-12-31T17:47:48.287Z,99620.72
2022-12-31T17:49:57.452Z,99642.66
2022-12-31T17:52:02.100Z,99635.41
2022-12-31T17:54:11.224Z,99632.75
2022-12-31T17:56:18.703Z,99628.41
2022-12-31T17:58:29.699Z,99630.06
2022-12-31T18:00:33.867Z,99643.28
2022-12-31T18:02:37.302Z,99629.09
2022-12-31T18:04:40.428Z,99631.75
2022-12-31T18:06:43.713Z,99650.06
2022-12-31T18:08:49.135Z,99626.00
2022-12-31T18:10:52.554Z,99633.38
2022-12-31T18:12:56.749Z,99624.50
2022-12-31T18:15:00.200Z,99626.94
2022-12-31T18:17:05.686Z,99626.22
2022-12-31T18:19:18.651Z,99652.13
2022-12-31T18:21:36.709Z,99629.84
2022-12-31T18:23:43.133Z,99639.44
2022-12-31T18:25:47.515Z,99626.69
2022-12-31T18:27:51.515Z,99653.06
2022-12-31T18:29:59.099Z,99626.91
2022-12-31T18:32:07.634Z,99636.50
2022-12-31T18:34:13.149Z,99598.59
2022-12-31T18:36:20.076Z,99665.66
2022-12-31T18:38:23.635Z,99603.94
2022-12-31T18:40:26.987Z,99603.81
2022-12-31T18:42:31.556Z,99614.34
2022-12-31T18:44:35.989Z,99593.38
2022-12-31T18:46:39.008Z,99588.66
2022-12-31T18:48:42.654Z,99633.47
2022-12-31T18:50:45.857Z,99634.66
2022-12-31T18:52:48.777Z,99623.78
2022-12-31T18:54:51.765Z,99602.97
2022-12-31T18:56:57.171Z,99616.25
2022-12-31T18:59:02.539Z,99594.22
2022-12-31T19:01:06.363Z,99634.16
2022-12-31T19:03:14.064Z,99619.66
2022-12-31T19:05:24.808Z,99617.94
2022-12-31T19:07:27.716Z,99633.31
2022-12-31T19:09:51.491Z,99612.22
2022-12-31T19:11:54.808Z,99616.25
2022-12-31T19:13:57.770Z,99620.06
2022-12-31T19:16:02.216Z,99631.69
2022-12-31T19:18:05.549Z,99634.38
2022-12-31T19:20:11.029Z,99615.00
2022-12-31T19:22:16.407Z,99607.53
2022-12-31T19:24:21.782Z,99619.06
2022-12-31T19:26:24.732Z,99615.00
2022-12-31T19:28:28.915Z,99626.25
2022-12-31T19:30:36.542Z,99619.66
2022-12-31T19:32:40.955Z,99619.44
2022-12-31T19:34:43.985Z,99625.00
2022-12-31T19:36:47.404Z,99614.34
2022-12-31T19:38:50.415Z,99622.09
2022-12-31T19:40:55.594Z,99619.44
2022-12-31T19:42:58.762Z,99614.34
2022-12-31T19:45:02.107Z,99640.47
2022-12-31T19:47:05.154Z,99622.75
2022-12-31T19:49:13.063Z,99655.16
2022-12-31T19:51:18.466Z,99634.81
2022-12-31T19:53:24.331Z,99638.09
2022-12-31T19:55:27.997Z,99628.19
2022-12-31T19:57:31.445Z,99631.94
2022-12-31T19:59:34.478Z,99642.16
2022-12-31T20:01:38.104Z,99631.38
2022-12-31T20:03:41.250Z,99643.88
2022-12-31T20:05:47.235Z,99655.47
2022-12-31T20:07:50.597Z,99654.50
2022-12-31T20:09:53.504Z,99665.16
2022-12-31T20:11:56.689Z,99666.84
2022-12-31T20:13:59.812Z,99701.09
2022-12-31T20:16:02.802Z,99674.16
2022-12-31T20:18:07.468Z,99674.38
2022-12-31T20:20:11.155Z,99676.81
2022-12-31T20:22:15.658Z,99675.22
2022-12-31T20:24:27.629Z,99681.63
2022-12-31T20:26:30.980Z,99665.56
2022-12-31T20:28:34.063Z,99699.31
2022-12-31T20:30:39.509Z,99720.13
2022-12-31T20:32:42.756Z,99690.13
2022-12-31T20:34:45.733Z,99690.97
2022-12-31T20:36:49.096Z,99701.97
2022-12-31T20:38:54.391Z,99684.19
2022-12-31T20:40:57.316Z,99690.34
2022-12-31T20:43:00.754Z,99729.44
2022-12-31T20:45:03.709Z,99690.13
2022-12-31T20:47:06.885Z,99715.28
2022-12-31T20:49:11.309Z,99726.91
2022-12-31T20:51:15.170Z,99726.66
2022-12-31T20:53:18.249Z,99725.94
2022-12-31T20:55:25.262Z,99708.03
2022-12-31T20:57:33.456Z,99739.50
2022-12-31T20:59:37.144Z,99711.19
2022-12-31T21:02:19.241Z,99734.81
2022-12-31T21:04:05.968Z,99729.97
2022-12-31T21:06:10.480Z,99709.47
2022-12-31T21:08:13.541Z,99719.31
2022-12-31T21:10:17.157Z,99736.09
2022-12-31T21:12:39.120Z,99723.53
2022-12-31T21:14:44.914Z,99743.66
2022-12-31T21:16:48.405Z,99733.13
2022-12-31T21:18:52.695Z,99769.78
2022-12-31T21:20:55.668Z,99734.19
2022-12-31T21:22:59.040Z,99742.19
2022-12-31T21:25:03.823Z,99762.53
2022-12-31T21:27:06.917Z,99742.19
2022-12-31T21:29:11.166Z,99737.72
2022-12-31T21:31:15.960Z,99735.91
2022-12-31T21:33:18.979Z,99767.63
2022-12-31T21:35:43.470Z,99784.88
2022-12-31T21:37:58.865Z,99761.16
2022-12-31T21:40:03.798Z,99767.69
2022-12-31T21:42:07.123Z,99764.19
2022-12-31T21:44:11.894Z,99772.06
2022-12-31T21:46:15.307Z,99768.41
2022-12-31T21:48:20.271Z,99759.09
2022-12-31T21:50:23.512Z,99782.09
2022-12-31T21:52:30.820Z,99778.56
2022-12-31T21:54:51.751Z,99772.50
2022-12-31T21:56:54.734Z,99764.19
2022-12-31T21:59:17.059Z,99769.63
2022-12-31T22:01:40.709Z,99768.66
2022-12-31T22:03:44.604Z,99785.09
2022-12-31T22:05:50.685Z,99781.56
2022-12-31T22:07:54.090Z,99781.69
2022-12-31T22:09:57.245Z,99779.13
2022-12-31T22:12:00.301Z,99779.97
2022-12-31T22:14:03.311Z,99763.06
2022-12-31T22:16:06.986Z,99786.50
2022-12-31T22:18:12.868Z,99741.97
2022-12-31T22:20:31.402Z,99771.59
2022-12-31T22:22:34.444Z,99775.22
2022-12-31T22:24:38.857Z,99779.69
2022-12-31T22:26:46.455Z,99787.78
2022-12-31T22:28:49.867Z,99793.56
2022-12-31T22:30:53.265Z,99790.81
2022-12-31T22:32:56.367Z,99790.06
2022-12-31T22:35:02.125Z,99801.34
2022-12-31T22:37:20.425Z,99787.03
2022-12-31T22:39:43.524Z,99810.25
2022-12-31T22:41:47.939Z,99797.69
2022-12-31T22:43:55.974Z,99800.25
2022-12-31T22:46:07.888Z,99830.75
2022-12-31T22:48:11.021Z,99792.25
2022-12-31T22:50:15.522Z,99821.78
2022-12-31T22:52:19.712Z,99803.13
2022-12-31T22:54:22.816Z,99814.31
2022-12-31T22:56:25.813Z,99811.34
2022-12-31T22:58:28.768Z,99827.84
2022-12-31T23:00:42.706Z,99805.56
2022-12-31T23:02:48.343Z,99796.19
2022-12-31T23:04:51.280Z,99814.69
2022-12-31T23:06:55.806Z,99822.94
2022-12-31T23:09:16.153Z,99808.75
2022-12-31T23:11:19.097Z,99827.47
2022-12-31T23:13:45.900Z,99820.94
2022-12-31T23:16:10.638Z,99832.16
2022-12-31T23:18:33.990Z,99814.22
2022-12-31T23:20:54.878Z,99821.25
2022-12-31T23:23:11.545Z,99810.38
2022-12-31T23:25:14.484Z,99822.00
2022-12-31T23:27:17.570Z,99813.78
2022-12-31T23:29:20.557Z,99804.56
2022-12-31T23:31:26.077Z,99809.28
2022-12-31T23:33:29.567Z,99805.66
2022-12-31T23:35:32.541Z,99805.91
2022-12-31T23:37:35.651Z,99783.72
2022-12-31T23:39:40.074Z,99799.25
2022-12-31T23:41:43.587Z,99792.22
2022-12-31T23:43:47.238Z,99795.97
2022-12-31T23:45:50.787Z,99798.75
2022-12-31T23:47:54.131Z,99801.91
2022-12-31T23:49:57.316Z,99802.03
2022-12-31T23:52:00.271Z,99793.59
2022-12-31T23:54:03.311Z,99813.44
2022-12-31T23:56:15.029Z,99799.03
2022-12-31T23:58:22.423Z,99793.84
